<?xml version="1.0" encoding="UTF-8" standalone="no" ?>
<gpx xmlns="http://www.topografix.com/GPX/1/1" xmlns:xsi="http://www.w3.org/2001/XMLSchema-instance" xsi:schemaLocation="http://www.topografix.com/GPX/1/1 http://www.topografix.com/GPX/1/1/gpx.xsd" version="1.1" creator="VisuGPX - https://www.visugpx.com">
  <metadata>
    <name>Moncaut 8.5 km</name>
  </metadata>
  <trk>
    <name><![CDATA[Moncaut 8.5 km]]></name>
    <extensions>
      <line xmlns="http://www.topografix.com/GPX/gpx_style/0/2">
        <color>0000FF</color>
        <width>4</width>
      </line>
    </extensions>
    <trkseg>
      <trkpt lat="44.14191" lon="0.49838">
        <ele>197</ele>
        <time>2022-02-08T15:37:00.000Z</time>
      </trkpt>
      <trkpt lat="44.14172" lon="0.49829">
        <ele>197</ele>
        <time>2024-12-03T20:30:02.000Z</time>
      </trkpt>
      <trkpt lat="44.14169" lon="0.49809">
        <ele>196</ele>
        <time>2022-02-08T15:36:49.000Z</time>
      </trkpt>
      <trkpt lat="44.14171" lon="0.4978">
        <ele>195</ele>
        <time>2024-12-03T20:30:02.000Z</time>
      </trkpt>
      <trkpt lat="44.14177" lon="0.49771">
        <ele>195</ele>
        <time>2022-02-08T15:36:17.000Z</time>
      </trkpt>
      <trkpt lat="44.14188" lon="0.49753">
        <ele>192</ele>
        <time>2022-02-08T15:35:53.000Z</time>
      </trkpt>
      <trkpt lat="44.14193" lon="0.49728">
        <ele>189</ele>
        <time>2022-02-08T15:35:26.000Z</time>
      </trkpt>
      <trkpt lat="44.14178" lon="0.49718">
        <ele>187</ele>
        <time>2022-02-08T15:34:40.000Z</time>
      </trkpt>
      <trkpt lat="44.14158" lon="0.49718">
        <ele>184</ele>
        <time>2022-02-08T15:34:18.000Z</time>
      </trkpt>
      <trkpt lat="44.1414" lon="0.49729">
        <ele>185</ele>
        <time>2022-02-08T15:33:59.000Z</time>
      </trkpt>
      <trkpt lat="44.14123" lon="0.49739">
        <ele>182</ele>
        <time>2022-02-08T15:33:42.000Z</time>
      </trkpt>
      <trkpt lat="44.14106" lon="0.49751">
        <ele>181</ele>
        <time>2022-02-08T15:33:11.000Z</time>
      </trkpt>
      <trkpt lat="44.14089" lon="0.49764">
        <ele>177</ele>
        <time>2022-02-08T15:32:52.000Z</time>
      </trkpt>
      <trkpt lat="44.14067" lon="0.49766">
        <ele>175</ele>
        <time>2022-02-08T15:30:25.000Z</time>
      </trkpt>
      <trkpt lat="44.1405" lon="0.49758">
        <ele>171</ele>
        <time>2022-02-08T15:29:57.000Z</time>
      </trkpt>
      <trkpt lat="44.14035" lon="0.49742">
        <ele>168</ele>
        <time>2022-02-08T15:29:40.000Z</time>
      </trkpt>
      <trkpt lat="44.14018" lon="0.49731">
        <ele>165</ele>
        <time>2022-02-08T15:28:21.000Z</time>
      </trkpt>
      <trkpt lat="44.14002" lon="0.49718">
        <ele>162</ele>
        <time>2022-02-08T15:27:59.000Z</time>
      </trkpt>
      <trkpt lat="44.13985" lon="0.49704">
        <ele>159</ele>
        <time>2022-02-08T15:27:35.000Z</time>
      </trkpt>
      <trkpt lat="44.13969" lon="0.49689">
        <ele>156</ele>
        <time>2022-02-08T15:27:15.000Z</time>
      </trkpt>
      <trkpt lat="44.13955" lon="0.49674">
        <ele>154</ele>
        <time>2022-02-08T15:26:55.000Z</time>
      </trkpt>
      <trkpt lat="44.1394" lon="0.49659">
        <ele>151</ele>
        <time>2022-02-08T15:26:37.000Z</time>
      </trkpt>
      <trkpt lat="44.13924" lon="0.49642">
        <ele>150</ele>
        <time>2022-02-08T15:26:17.000Z</time>
      </trkpt>
      <trkpt lat="44.1391" lon="0.49625">
        <ele>148</ele>
        <time>2022-02-08T15:25:58.000Z</time>
      </trkpt>
      <trkpt lat="44.13895" lon="0.49608">
        <ele>147</ele>
        <time>2022-02-08T15:25:39.000Z</time>
      </trkpt>
      <trkpt lat="44.13879" lon="0.49592">
        <ele>147</ele>
        <time>2022-02-08T15:25:21.000Z</time>
      </trkpt>
      <trkpt lat="44.13866" lon="0.49574">
        <ele>146</ele>
        <time>2022-02-08T15:25:04.000Z</time>
      </trkpt>
      <trkpt lat="44.13851" lon="0.49556">
        <ele>145</ele>
        <time>2022-02-08T15:24:45.000Z</time>
      </trkpt>
      <trkpt lat="44.13837" lon="0.49539">
        <ele>144</ele>
        <time>2022-02-08T15:24:27.000Z</time>
      </trkpt>
      <trkpt lat="44.13823" lon="0.4952">
        <ele>143</ele>
        <time>2022-02-08T15:24:09.000Z</time>
      </trkpt>
      <trkpt lat="44.1381" lon="0.49502">
        <ele>143</ele>
        <time>2022-02-08T15:23:50.000Z</time>
      </trkpt>
      <trkpt lat="44.13796" lon="0.49484">
        <ele>142</ele>
        <time>2022-02-08T15:23:26.000Z</time>
      </trkpt>
      <trkpt lat="44.13782" lon="0.49465">
        <ele>140</ele>
        <time>2022-02-08T15:23:07.000Z</time>
      </trkpt>
      <trkpt lat="44.13769" lon="0.49447">
        <ele>139</ele>
        <time>2022-02-08T15:22:49.000Z</time>
      </trkpt>
      <trkpt lat="44.13755" lon="0.4943">
        <ele>138</ele>
        <time>2022-02-08T15:22:34.000Z</time>
      </trkpt>
      <trkpt lat="44.1374" lon="0.49412">
        <ele>138</ele>
        <time>2022-02-08T15:22:17.000Z</time>
      </trkpt>
      <trkpt lat="44.13726" lon="0.49394">
        <ele>139</ele>
        <time>2022-02-08T15:21:52.000Z</time>
      </trkpt>
      <trkpt lat="44.1371" lon="0.4938">
        <ele>138</ele>
        <time>2022-02-08T15:21:19.000Z</time>
      </trkpt>
      <trkpt lat="44.13693" lon="0.49369">
        <ele>139</ele>
        <time>2022-02-08T15:20:58.000Z</time>
      </trkpt>
      <trkpt lat="44.13674" lon="0.49359">
        <ele>141</ele>
        <time>2022-02-08T15:20:42.000Z</time>
      </trkpt>
      <trkpt lat="44.13656" lon="0.49347">
        <ele>143</ele>
        <time>2022-02-08T15:20:25.000Z</time>
      </trkpt>
      <trkpt lat="44.13638" lon="0.49337">
        <ele>144</ele>
        <time>2022-02-08T15:20:08.000Z</time>
      </trkpt>
      <trkpt lat="44.1362" lon="0.49327">
        <ele>145</ele>
        <time>2022-02-08T15:19:43.000Z</time>
      </trkpt>
      <trkpt lat="44.13616" lon="0.49301">
        <ele>145</ele>
        <time>2022-02-08T15:19:25.000Z</time>
      </trkpt>
      <trkpt lat="44.13619" lon="0.49275">
        <ele>146</ele>
        <time>2022-02-08T15:19:08.000Z</time>
      </trkpt>
      <trkpt lat="44.13623" lon="0.49249">
        <ele>146</ele>
        <time>2022-02-08T15:18:50.000Z</time>
      </trkpt>
      <trkpt lat="44.13623" lon="0.49223">
        <ele>146</ele>
        <time>2022-02-08T15:18:35.000Z</time>
      </trkpt>
      <trkpt lat="44.13628" lon="0.49198">
        <ele>146</ele>
        <time>2022-02-08T15:18:19.000Z</time>
      </trkpt>
      <trkpt lat="44.13631" lon="0.49171">
        <ele>146</ele>
        <time>2022-02-08T15:18:02.000Z</time>
      </trkpt>
      <trkpt lat="44.13635" lon="0.49144">
        <ele>146</ele>
        <time>2022-02-08T15:17:44.000Z</time>
      </trkpt>
      <trkpt lat="44.13638" lon="0.49119">
        <ele>147</ele>
        <time>2022-02-08T15:17:28.000Z</time>
      </trkpt>
      <trkpt lat="44.13641" lon="0.49094">
        <ele>147</ele>
        <time>2022-02-08T15:17:11.000Z</time>
      </trkpt>
      <trkpt lat="44.13641" lon="0.49067">
        <ele>147</ele>
        <time>2022-02-08T15:16:54.000Z</time>
      </trkpt>
      <trkpt lat="44.13642" lon="0.4904">
        <ele>147</ele>
        <time>2022-02-08T15:16:37.000Z</time>
      </trkpt>
      <trkpt lat="44.13643" lon="0.49013">
        <ele>147</ele>
        <time>2022-02-08T15:16:01.000Z</time>
      </trkpt>
      <trkpt lat="44.13645" lon="0.48987">
        <ele>146</ele>
        <time>2022-02-08T15:15:44.000Z</time>
      </trkpt>
      <trkpt lat="44.13647" lon="0.48961">
        <ele>146</ele>
        <time>2022-02-08T15:15:29.000Z</time>
      </trkpt>
      <trkpt lat="44.13649" lon="0.48934">
        <ele>146</ele>
        <time>2022-02-08T15:14:50.000Z</time>
      </trkpt>
      <trkpt lat="44.13649" lon="0.48908">
        <ele>145</ele>
        <time>2022-02-08T15:14:33.000Z</time>
      </trkpt>
      <trkpt lat="44.13648" lon="0.48883">
        <ele>144</ele>
        <time>2022-02-08T15:14:16.000Z</time>
      </trkpt>
      <trkpt lat="44.13647" lon="0.48856">
        <ele>143</ele>
        <time>2022-02-08T15:13:58.000Z</time>
      </trkpt>
      <trkpt lat="44.13643" lon="0.48831">
        <ele>143</ele>
        <time>2022-02-08T15:13:40.000Z</time>
      </trkpt>
      <trkpt lat="44.13632" lon="0.4881">
        <ele>142</ele>
        <time>2022-02-08T15:13:23.000Z</time>
      </trkpt>
      <trkpt lat="44.13618" lon="0.48793">
        <ele>140</ele>
        <time>2022-02-08T15:13:05.000Z</time>
      </trkpt>
      <trkpt lat="44.13601" lon="0.48779">
        <ele>139</ele>
        <time>2022-02-08T15:12:48.000Z</time>
      </trkpt>
      <trkpt lat="44.13585" lon="0.48766">
        <ele>138</ele>
        <time>2022-02-08T15:12:32.000Z</time>
      </trkpt>
      <trkpt lat="44.13569" lon="0.48752">
        <ele>137</ele>
        <time>2022-02-08T15:12:16.000Z</time>
      </trkpt>
      <trkpt lat="44.13553" lon="0.48737">
        <ele>137</ele>
        <time>2022-02-08T15:11:58.000Z</time>
      </trkpt>
      <trkpt lat="44.13538" lon="0.48721">
        <ele>135</ele>
        <time>2022-02-08T15:11:41.000Z</time>
      </trkpt>
      <trkpt lat="44.13524" lon="0.48703">
        <ele>134</ele>
        <time>2022-02-08T15:11:22.000Z</time>
      </trkpt>
      <trkpt lat="44.1351" lon="0.48683">
        <ele>133</ele>
        <time>2022-02-08T15:11:02.000Z</time>
      </trkpt>
      <trkpt lat="44.13496" lon="0.48666">
        <ele>131</ele>
        <time>2022-02-08T15:10:43.000Z</time>
      </trkpt>
      <trkpt lat="44.13482" lon="0.48648">
        <ele>130</ele>
        <time>2022-02-08T15:10:26.000Z</time>
      </trkpt>
      <trkpt lat="44.13472" lon="0.48625">
        <ele>127</ele>
        <time>2022-02-08T15:10:03.000Z</time>
      </trkpt>
      <trkpt lat="44.13478" lon="0.48599">
        <ele>125</ele>
        <time>2022-02-08T15:09:44.000Z</time>
      </trkpt>
      <trkpt lat="44.13484" lon="0.48574">
        <ele>124</ele>
        <time>2022-02-08T15:09:28.000Z</time>
      </trkpt>
      <trkpt lat="44.13491" lon="0.48549">
        <ele>124</ele>
        <time>2022-02-08T15:09:11.000Z</time>
      </trkpt>
      <trkpt lat="44.13497" lon="0.48523">
        <ele>123</ele>
        <time>2022-02-08T15:08:55.000Z</time>
      </trkpt>
      <trkpt lat="44.13503" lon="0.48497">
        <ele>122</ele>
        <time>2022-02-08T15:08:38.000Z</time>
      </trkpt>
      <trkpt lat="44.1351" lon="0.48472">
        <ele>122</ele>
        <time>2022-02-08T15:08:21.000Z</time>
      </trkpt>
      <trkpt lat="44.13516" lon="0.48445">
        <ele>121</ele>
        <time>2022-02-08T15:08:03.000Z</time>
      </trkpt>
      <trkpt lat="44.13521" lon="0.48419">
        <ele>120</ele>
        <time>2022-02-08T15:07:47.000Z</time>
      </trkpt>
      <trkpt lat="44.13527" lon="0.48395">
        <ele>120</ele>
        <time>2022-02-08T15:07:31.000Z</time>
      </trkpt>
      <trkpt lat="44.13534" lon="0.48369">
        <ele>120</ele>
        <time>2022-02-08T15:07:15.000Z</time>
      </trkpt>
      <trkpt lat="44.1354" lon="0.48344">
        <ele>121</ele>
        <time>2022-02-08T15:06:59.000Z</time>
      </trkpt>
      <trkpt lat="44.13543" lon="0.48317">
        <ele>120</ele>
        <time>2022-02-08T15:06:43.000Z</time>
      </trkpt>
      <trkpt lat="44.13548" lon="0.48291">
        <ele>121</ele>
        <time>2022-02-08T15:06:26.000Z</time>
      </trkpt>
      <trkpt lat="44.13554" lon="0.48266">
        <ele>123</ele>
        <time>2022-02-08T15:06:11.000Z</time>
      </trkpt>
      <trkpt lat="44.13559" lon="0.4824">
        <ele>124</ele>
        <time>2022-02-08T15:05:54.000Z</time>
      </trkpt>
      <trkpt lat="44.13564" lon="0.48214">
        <ele>126</ele>
        <time>2022-02-08T15:05:39.000Z</time>
      </trkpt>
      <trkpt lat="44.13568" lon="0.48187">
        <ele>128</ele>
        <time>2022-02-08T15:05:21.000Z</time>
      </trkpt>
      <trkpt lat="44.13574" lon="0.4816">
        <ele>130</ele>
        <time>2022-02-08T15:05:05.000Z</time>
      </trkpt>
      <trkpt lat="44.1357" lon="0.48126">
        <ele>131</ele>
        <time>2024-12-03T20:30:02.000Z</time>
      </trkpt>
      <trkpt lat="44.13569" lon="0.48088">
        <ele>131</ele>
        <time>2024-12-03T20:30:02.000Z</time>
      </trkpt>
      <trkpt lat="44.13575" lon="0.48053">
        <ele>131</ele>
        <time>2024-12-03T20:30:02.000Z</time>
      </trkpt>
      <trkpt lat="44.1359" lon="0.48021">
        <ele>130</ele>
        <time>2024-12-03T20:30:02.000Z</time>
      </trkpt>
      <trkpt lat="44.13607" lon="0.47993">
        <ele>130</ele>
        <time>2024-12-03T20:30:02.000Z</time>
      </trkpt>
      <trkpt lat="44.13619" lon="0.47955">
        <ele>130</ele>
        <time>2024-12-03T20:30:02.000Z</time>
      </trkpt>
      <trkpt lat="44.13628" lon="0.47901">
        <ele>131</ele>
        <time>2024-12-03T20:30:02.000Z</time>
      </trkpt>
      <trkpt lat="44.13628" lon="0.47886">
        <ele>132</ele>
        <time>2024-12-03T20:30:02.000Z</time>
      </trkpt>
      <trkpt lat="44.13652" lon="0.47875">
        <ele>133</ele>
        <time>2024-12-03T20:30:02.000Z</time>
      </trkpt>
      <trkpt lat="44.13677" lon="0.47867">
        <ele>133</ele>
        <time>2024-12-03T20:30:02.000Z</time>
      </trkpt>
      <trkpt lat="44.13723" lon="0.47875">
        <ele>134</ele>
        <time>2024-12-03T20:30:02.000Z</time>
      </trkpt>
      <trkpt lat="44.13739" lon="0.47926">
        <ele>133</ele>
        <time>2024-12-03T20:30:02.000Z</time>
      </trkpt>
      <trkpt lat="44.13754" lon="0.47954">
        <ele>132</ele>
        <time>2024-12-03T20:30:02.000Z</time>
      </trkpt>
      <trkpt lat="44.13761" lon="0.47999">
        <ele>131</ele>
        <time>2024-12-03T20:30:02.000Z</time>
      </trkpt>
      <trkpt lat="44.13748" lon="0.48113">
        <ele>131</ele>
        <time>2024-12-03T20:30:02.000Z</time>
      </trkpt>
      <trkpt lat="44.13747" lon="0.48199">
        <ele>133</ele>
        <time>2024-12-03T20:30:02.000Z</time>
      </trkpt>
      <trkpt lat="44.13748" lon="0.4834">
        <ele>134</ele>
        <time>2022-02-08T14:53:47.000Z</time>
      </trkpt>
      <trkpt lat="44.1376" lon="0.48354">
        <ele>134</ele>
        <time>2022-02-08T14:53:15.000Z</time>
      </trkpt>
      <trkpt lat="44.13772" lon="0.48374">
        <ele>134</ele>
        <time>2022-02-08T14:52:59.000Z</time>
      </trkpt>
      <trkpt lat="44.13785" lon="0.48393">
        <ele>134</ele>
        <time>2022-02-08T14:52:45.000Z</time>
      </trkpt>
      <trkpt lat="44.13798" lon="0.48413">
        <ele>133</ele>
        <time>2022-02-08T14:52:31.000Z</time>
      </trkpt>
      <trkpt lat="44.13808" lon="0.48438">
        <ele>132</ele>
        <time>2022-02-08T14:52:14.000Z</time>
      </trkpt>
      <trkpt lat="44.13813" lon="0.48465">
        <ele>133</ele>
        <time>2022-02-08T14:51:59.000Z</time>
      </trkpt>
      <trkpt lat="44.13816" lon="0.4849">
        <ele>132</ele>
        <time>2022-02-08T14:51:44.000Z</time>
      </trkpt>
      <trkpt lat="44.13819" lon="0.48516">
        <ele>130</ele>
        <time>2022-02-08T14:51:29.000Z</time>
      </trkpt>
      <trkpt lat="44.13828" lon="0.48541">
        <ele>129</ele>
        <time>2022-02-08T14:51:12.000Z</time>
      </trkpt>
      <trkpt lat="44.13838" lon="0.48563">
        <ele>128</ele>
        <time>2022-02-08T14:50:57.000Z</time>
      </trkpt>
      <trkpt lat="44.13847" lon="0.48587">
        <ele>126</ele>
        <time>2022-02-08T14:50:41.000Z</time>
      </trkpt>
      <trkpt lat="44.13853" lon="0.48612">
        <ele>125</ele>
        <time>2022-02-08T14:50:25.000Z</time>
      </trkpt>
      <trkpt lat="44.13858" lon="0.48637">
        <ele>122</ele>
        <time>2022-02-08T14:50:10.000Z</time>
      </trkpt>
      <trkpt lat="44.13863" lon="0.48663">
        <ele>122</ele>
        <time>2022-02-08T14:49:52.000Z</time>
      </trkpt>
      <trkpt lat="44.13869" lon="0.48689">
        <ele>121</ele>
        <time>2022-02-08T14:49:32.000Z</time>
      </trkpt>
      <trkpt lat="44.13875" lon="0.48714">
        <ele>120</ele>
        <time>2022-02-08T14:49:00.000Z</time>
      </trkpt>
      <trkpt lat="44.13885" lon="0.48737">
        <ele>120</ele>
        <time>2022-02-08T14:48:37.000Z</time>
      </trkpt>
      <trkpt lat="44.13896" lon="0.48758">
        <ele>120</ele>
        <time>2022-02-08T14:47:39.000Z</time>
      </trkpt>
      <trkpt lat="44.13911" lon="0.48773">
        <ele>120</ele>
        <time>2022-02-08T14:47:23.000Z</time>
      </trkpt>
      <trkpt lat="44.13927" lon="0.4879">
        <ele>121</ele>
        <time>2022-02-08T14:47:08.000Z</time>
      </trkpt>
      <trkpt lat="44.13941" lon="0.48808">
        <ele>122</ele>
        <time>2022-02-08T14:46:53.000Z</time>
      </trkpt>
      <trkpt lat="44.13953" lon="0.48827">
        <ele>123</ele>
        <time>2022-02-08T14:46:28.000Z</time>
      </trkpt>
      <trkpt lat="44.1397" lon="0.4884">
        <ele>124</ele>
        <time>2022-02-08T14:46:11.000Z</time>
      </trkpt>
      <trkpt lat="44.13983" lon="0.48859">
        <ele>126</ele>
        <time>2022-02-08T14:45:55.000Z</time>
      </trkpt>
      <trkpt lat="44.14001" lon="0.48874">
        <ele>127</ele>
        <time>2022-02-08T14:45:40.000Z</time>
      </trkpt>
      <trkpt lat="44.14017" lon="0.48888">
        <ele>129</ele>
        <time>2022-02-08T14:45:25.000Z</time>
      </trkpt>
      <trkpt lat="44.14031" lon="0.48906">
        <ele>132</ele>
        <time>2022-02-08T14:45:08.000Z</time>
      </trkpt>
      <trkpt lat="44.14047" lon="0.48917">
        <ele>134</ele>
        <time>2022-02-08T14:44:50.000Z</time>
      </trkpt>
      <trkpt lat="44.14063" lon="0.48929">
        <ele>135</ele>
        <time>2022-02-08T14:43:56.000Z</time>
      </trkpt>
      <trkpt lat="44.1408" lon="0.48939">
        <ele>137</ele>
        <time>2022-02-08T14:43:39.000Z</time>
      </trkpt>
      <trkpt lat="44.14099" lon="0.48949">
        <ele>139</ele>
        <time>2022-02-08T14:43:24.000Z</time>
      </trkpt>
      <trkpt lat="44.14118" lon="0.48958">
        <ele>140</ele>
        <time>2022-02-08T14:43:10.000Z</time>
      </trkpt>
      <trkpt lat="44.14138" lon="0.48965">
        <ele>142</ele>
        <time>2022-02-08T14:42:56.000Z</time>
      </trkpt>
      <trkpt lat="44.14157" lon="0.48972">
        <ele>143</ele>
        <time>2022-02-08T14:42:42.000Z</time>
      </trkpt>
      <trkpt lat="44.14176" lon="0.4898">
        <ele>145</ele>
        <time>2022-02-08T14:42:26.000Z</time>
      </trkpt>
      <trkpt lat="44.14194" lon="0.4899">
        <ele>147</ele>
        <time>2022-02-08T14:42:11.000Z</time>
      </trkpt>
      <trkpt lat="44.14212" lon="0.48998">
        <ele>148</ele>
        <time>2022-02-08T14:41:56.000Z</time>
      </trkpt>
      <trkpt lat="44.14229" lon="0.49005">
        <ele>150</ele>
        <time>2022-02-08T14:41:43.000Z</time>
      </trkpt>
      <trkpt lat="44.14248" lon="0.49016">
        <ele>152</ele>
        <time>2022-02-08T14:41:28.000Z</time>
      </trkpt>
      <trkpt lat="44.14266" lon="0.49024">
        <ele>154</ele>
        <time>2022-02-08T14:41:13.000Z</time>
      </trkpt>
      <trkpt lat="44.14284" lon="0.49034">
        <ele>155</ele>
        <time>2022-02-08T14:40:56.000Z</time>
      </trkpt>
      <trkpt lat="44.14303" lon="0.49042">
        <ele>157</ele>
        <time>2022-02-08T14:40:40.000Z</time>
      </trkpt>
      <trkpt lat="44.1432" lon="0.49053">
        <ele>159</ele>
        <time>2022-02-08T14:40:23.000Z</time>
      </trkpt>
      <trkpt lat="44.14336" lon="0.49063">
        <ele>161</ele>
        <time>2022-02-08T14:40:08.000Z</time>
      </trkpt>
      <trkpt lat="44.14353" lon="0.49076">
        <ele>163</ele>
        <time>2022-02-08T14:39:50.000Z</time>
      </trkpt>
      <trkpt lat="44.14369" lon="0.49089">
        <ele>165</ele>
        <time>2022-02-08T14:39:32.000Z</time>
      </trkpt>
      <trkpt lat="44.14385" lon="0.49104">
        <ele>167</ele>
        <time>2022-02-08T14:39:09.000Z</time>
      </trkpt>
      <trkpt lat="44.14401" lon="0.49118">
        <ele>169</ele>
        <time>2022-02-08T14:38:55.000Z</time>
      </trkpt>
      <trkpt lat="44.14418" lon="0.49128">
        <ele>171</ele>
        <time>2022-02-08T14:38:28.000Z</time>
      </trkpt>
      <trkpt lat="44.14433" lon="0.49142">
        <ele>173</ele>
        <time>2022-02-08T14:38:14.000Z</time>
      </trkpt>
      <trkpt lat="44.14449" lon="0.49159">
        <ele>174</ele>
        <time>2022-02-08T14:37:57.000Z</time>
      </trkpt>
      <trkpt lat="44.14465" lon="0.49172">
        <ele>177</ele>
        <time>2022-02-08T14:37:40.000Z</time>
      </trkpt>
      <trkpt lat="44.14482" lon="0.49187">
        <ele>179</ele>
        <time>2022-02-08T14:37:19.000Z</time>
      </trkpt>
      <trkpt lat="44.14497" lon="0.492">
        <ele>181</ele>
        <time>2022-02-08T14:37:02.000Z</time>
      </trkpt>
      <trkpt lat="44.14511" lon="0.49218">
        <ele>183</ele>
        <time>2022-02-08T14:36:44.000Z</time>
      </trkpt>
      <trkpt lat="44.14524" lon="0.49238">
        <ele>185</ele>
        <time>2022-02-08T14:36:24.000Z</time>
      </trkpt>
      <trkpt lat="44.14537" lon="0.49259">
        <ele>187</ele>
        <time>2022-02-08T14:36:06.000Z</time>
      </trkpt>
      <trkpt lat="44.14547" lon="0.49281">
        <ele>190</ele>
        <time>2022-02-08T14:35:49.000Z</time>
      </trkpt>
      <trkpt lat="44.14552" lon="0.49306">
        <ele>192</ele>
        <time>2022-02-08T14:35:27.000Z</time>
      </trkpt>
      <trkpt lat="44.14558" lon="0.49332">
        <ele>193</ele>
        <time>2022-02-08T14:35:10.000Z</time>
      </trkpt>
      <trkpt lat="44.14562" lon="0.49358">
        <ele>194</ele>
        <time>2022-02-08T14:34:55.000Z</time>
      </trkpt>
      <trkpt lat="44.14567" lon="0.49383">
        <ele>198</ele>
        <time>2022-02-08T14:34:39.000Z</time>
      </trkpt>
      <trkpt lat="44.14572" lon="0.49408">
        <ele>200</ele>
        <time>2022-02-08T14:34:23.000Z</time>
      </trkpt>
      <trkpt lat="44.14579" lon="0.49433">
        <ele>201</ele>
        <time>2022-02-08T14:34:07.000Z</time>
      </trkpt>
      <trkpt lat="44.1459" lon="0.49455">
        <ele>202</ele>
        <time>2022-02-08T14:33:51.000Z</time>
      </trkpt>
      <trkpt lat="44.14599" lon="0.49479">
        <ele>203</ele>
        <time>2022-02-08T14:33:35.000Z</time>
      </trkpt>
      <trkpt lat="44.14609" lon="0.49502">
        <ele>203</ele>
        <time>2022-02-08T14:33:16.000Z</time>
      </trkpt>
      <trkpt lat="44.1462" lon="0.49525">
        <ele>204</ele>
        <time>2022-02-08T14:32:59.000Z</time>
      </trkpt>
      <trkpt lat="44.1463" lon="0.49547">
        <ele>203</ele>
        <time>2022-02-08T14:32:43.000Z</time>
      </trkpt>
      <trkpt lat="44.1464" lon="0.4957">
        <ele>202</ele>
        <time>2022-02-08T14:32:25.000Z</time>
      </trkpt>
      <trkpt lat="44.14624" lon="0.49585">
        <ele>202</ele>
        <time>2022-02-08T14:32:07.000Z</time>
      </trkpt>
      <trkpt lat="44.14609" lon="0.49601">
        <ele>202</ele>
        <time>2022-02-08T14:31:50.000Z</time>
      </trkpt>
      <trkpt lat="44.14595" lon="0.49617">
        <ele>201</ele>
        <time>2022-02-08T14:31:34.000Z</time>
      </trkpt>
      <trkpt lat="44.14579" lon="0.49632">
        <ele>202</ele>
        <time>2022-02-08T14:31:18.000Z</time>
      </trkpt>
      <trkpt lat="44.14564" lon="0.49649">
        <ele>201</ele>
        <time>2022-02-08T14:31:03.000Z</time>
      </trkpt>
      <trkpt lat="44.14549" lon="0.49666">
        <ele>200</ele>
        <time>2022-02-08T14:30:47.000Z</time>
      </trkpt>
      <trkpt lat="44.14533" lon="0.49681">
        <ele>200</ele>
        <time>2022-02-08T14:30:32.000Z</time>
      </trkpt>
      <trkpt lat="44.14519" lon="0.49696">
        <ele>200</ele>
        <time>2022-02-08T14:30:18.000Z</time>
      </trkpt>
      <trkpt lat="44.14503" lon="0.4971">
        <ele>200</ele>
        <time>2022-02-08T14:30:03.000Z</time>
      </trkpt>
      <trkpt lat="44.14487" lon="0.49726">
        <ele>200</ele>
        <time>2022-02-08T14:29:47.000Z</time>
      </trkpt>
      <trkpt lat="44.14473" lon="0.49742">
        <ele>201</ele>
        <time>2022-02-08T14:29:33.000Z</time>
      </trkpt>
      <trkpt lat="44.14458" lon="0.49758">
        <ele>201</ele>
        <time>2022-02-08T14:29:19.000Z</time>
      </trkpt>
      <trkpt lat="44.14442" lon="0.49772">
        <ele>201</ele>
        <time>2022-02-08T14:29:04.000Z</time>
      </trkpt>
      <trkpt lat="44.14427" lon="0.4979">
        <ele>200</ele>
        <time>2022-02-08T14:28:49.000Z</time>
      </trkpt>
      <trkpt lat="44.14412" lon="0.4981">
        <ele>199</ele>
        <time>2022-02-08T14:27:36.000Z</time>
      </trkpt>
      <trkpt lat="44.14395" lon="0.4982">
        <ele>199</ele>
        <time>2022-02-08T14:26:53.000Z</time>
      </trkpt>
      <trkpt lat="44.14378" lon="0.49832">
        <ele>198</ele>
        <time>2022-02-08T14:26:37.000Z</time>
      </trkpt>
      <trkpt lat="44.1436" lon="0.49839">
        <ele>198</ele>
        <time>2022-02-08T14:26:23.000Z</time>
      </trkpt>
      <trkpt lat="44.14341" lon="0.49849">
        <ele>198</ele>
        <time>2022-02-08T14:26:06.000Z</time>
      </trkpt>
      <trkpt lat="44.14324" lon="0.49857">
        <ele>198</ele>
        <time>2022-02-08T14:25:43.000Z</time>
      </trkpt>
      <trkpt lat="44.14307" lon="0.49869">
        <ele>198</ele>
        <time>2022-02-08T14:25:25.000Z</time>
      </trkpt>
      <trkpt lat="44.14291" lon="0.49882">
        <ele>198</ele>
        <time>2022-02-08T14:25:09.000Z</time>
      </trkpt>
      <trkpt lat="44.14276" lon="0.499">
        <ele>198</ele>
        <time>2022-02-08T14:24:52.000Z</time>
      </trkpt>
      <trkpt lat="44.14265" lon="0.49921">
        <ele>197</ele>
        <time>2022-02-08T14:24:35.000Z</time>
      </trkpt>
      <trkpt lat="44.14255" lon="0.49944">
        <ele>197</ele>
        <time>2022-02-08T14:24:19.000Z</time>
      </trkpt>
      <trkpt lat="44.14244" lon="0.49964">
        <ele>196</ele>
        <time>2022-02-08T14:24:03.000Z</time>
      </trkpt>
      <trkpt lat="44.14232" lon="0.49985">
        <ele>196</ele>
        <time>2022-02-08T14:23:43.000Z</time>
      </trkpt>
      <trkpt lat="44.1422" lon="0.50007">
        <ele>195</ele>
        <time>2022-02-08T14:23:23.000Z</time>
      </trkpt>
      <trkpt lat="44.14209" lon="0.50029">
        <ele>194</ele>
        <time>2022-02-08T14:23:07.000Z</time>
      </trkpt>
      <trkpt lat="44.142" lon="0.50051">
        <ele>194</ele>
        <time>2022-02-08T14:22:51.000Z</time>
      </trkpt>
      <trkpt lat="44.14189" lon="0.50073">
        <ele>193</ele>
        <time>2022-02-08T14:22:34.000Z</time>
      </trkpt>
      <trkpt lat="44.14177" lon="0.50093">
        <ele>193</ele>
        <time>2022-02-08T14:22:18.000Z</time>
      </trkpt>
      <trkpt lat="44.14167" lon="0.50112">
        <ele>193</ele>
        <time>2024-12-03T20:30:02.000Z</time>
      </trkpt>
      <trkpt lat="44.14171" lon="0.50117">
        <ele>192</ele>
        <time>2022-02-08T14:20:45.000Z</time>
      </trkpt>
      <trkpt lat="44.14186" lon="0.50133">
        <ele>190</ele>
        <time>2022-02-08T14:20:21.000Z</time>
      </trkpt>
      <trkpt lat="44.14198" lon="0.50153">
        <ele>187</ele>
        <time>2022-02-08T14:19:55.000Z</time>
      </trkpt>
      <trkpt lat="44.14211" lon="0.50171">
        <ele>182</ele>
        <time>2022-02-08T14:19:33.000Z</time>
      </trkpt>
      <trkpt lat="44.14226" lon="0.50189">
        <ele>179</ele>
        <time>2022-02-08T14:19:12.000Z</time>
      </trkpt>
      <trkpt lat="44.1424" lon="0.50207">
        <ele>177</ele>
        <time>2022-02-08T14:18:49.000Z</time>
      </trkpt>
      <trkpt lat="44.14255" lon="0.50221">
        <ele>175</ele>
        <time>2022-02-08T14:18:28.000Z</time>
      </trkpt>
      <trkpt lat="44.1427" lon="0.50237">
        <ele>172</ele>
        <time>2022-02-08T14:18:05.000Z</time>
      </trkpt>
      <trkpt lat="44.14284" lon="0.50253">
        <ele>168</ele>
        <time>2022-02-08T14:17:42.000Z</time>
      </trkpt>
      <trkpt lat="44.14298" lon="0.50269">
        <ele>166</ele>
        <time>2022-02-08T14:17:20.000Z</time>
      </trkpt>
      <trkpt lat="44.14311" lon="0.50289">
        <ele>164</ele>
        <time>2022-02-08T14:14:54.000Z</time>
      </trkpt>
      <trkpt lat="44.14326" lon="0.50306">
        <ele>161</ele>
        <time>2022-02-08T14:14:31.000Z</time>
      </trkpt>
      <trkpt lat="44.1434" lon="0.50323">
        <ele>159</ele>
        <time>2022-02-08T14:14:09.000Z</time>
      </trkpt>
      <trkpt lat="44.14354" lon="0.5034">
        <ele>156</ele>
        <time>2022-02-08T14:13:49.000Z</time>
      </trkpt>
      <trkpt lat="44.14369" lon="0.50356">
        <ele>152</ele>
        <time>2022-02-08T14:13:25.000Z</time>
      </trkpt>
      <trkpt lat="44.14385" lon="0.50369">
        <ele>150</ele>
        <time>2022-02-08T14:13:01.000Z</time>
      </trkpt>
      <trkpt lat="44.14402" lon="0.50379">
        <ele>147</ele>
        <time>2022-02-08T14:12:36.000Z</time>
      </trkpt>
      <trkpt lat="44.14419" lon="0.50392">
        <ele>144</ele>
        <time>2022-02-08T14:12:12.000Z</time>
      </trkpt>
      <trkpt lat="44.14437" lon="0.50404">
        <ele>142</ele>
        <time>2022-02-08T14:11:51.000Z</time>
      </trkpt>
      <trkpt lat="44.14454" lon="0.50414">
        <ele>141</ele>
        <time>2022-02-08T14:11:32.000Z</time>
      </trkpt>
      <trkpt lat="44.14456" lon="0.50439">
        <ele>140</ele>
        <time>2022-02-08T14:11:02.000Z</time>
      </trkpt>
      <trkpt lat="44.14453" lon="0.50464">
        <ele>140</ele>
        <time>2022-02-08T14:10:46.000Z</time>
      </trkpt>
      <trkpt lat="44.14452" lon="0.5049">
        <ele>139</ele>
        <time>2022-02-08T14:10:28.000Z</time>
      </trkpt>
      <trkpt lat="44.14451" lon="0.50515">
        <ele>139</ele>
        <time>2022-02-08T14:10:10.000Z</time>
      </trkpt>
      <trkpt lat="44.14447" lon="0.5054">
        <ele>138</ele>
        <time>2022-02-08T14:08:59.000Z</time>
      </trkpt>
      <trkpt lat="44.14453" lon="0.50564">
        <ele>139</ele>
        <time>2022-02-08T14:08:18.000Z</time>
      </trkpt>
      <trkpt lat="44.14456" lon="0.50591">
        <ele>139</ele>
        <time>2022-02-08T14:07:59.000Z</time>
      </trkpt>
      <trkpt lat="44.14457" lon="0.50617">
        <ele>140</ele>
        <time>2022-02-08T14:07:45.000Z</time>
      </trkpt>
      <trkpt lat="44.14459" lon="0.50643">
        <ele>141</ele>
        <time>2022-02-08T14:07:29.000Z</time>
      </trkpt>
      <trkpt lat="44.14467" lon="0.5066">
        <ele>143</ele>
        <time>2022-02-08T14:07:10.000Z</time>
      </trkpt>
      <trkpt lat="44.14485" lon="0.50663">
        <ele>144</ele>
        <time>2022-02-08T14:06:54.000Z</time>
      </trkpt>
      <trkpt lat="44.14504" lon="0.50663">
        <ele>147</ele>
        <time>2022-02-08T14:06:40.000Z</time>
      </trkpt>
      <trkpt lat="44.14522" lon="0.50666">
        <ele>149</ele>
        <time>2022-02-08T14:06:25.000Z</time>
      </trkpt>
      <trkpt lat="44.1454" lon="0.50668">
        <ele>150</ele>
        <time>2022-02-08T14:06:09.000Z</time>
      </trkpt>
      <trkpt lat="44.14558" lon="0.50677">
        <ele>153</ele>
        <time>2022-02-08T14:05:30.000Z</time>
      </trkpt>
      <trkpt lat="44.14571" lon="0.50698">
        <ele>155</ele>
        <time>2022-02-08T14:04:53.000Z</time>
      </trkpt>
      <trkpt lat="44.1458" lon="0.50722">
        <ele>156</ele>
        <time>2022-02-08T14:04:34.000Z</time>
      </trkpt>
      <trkpt lat="44.14588" lon="0.50746">
        <ele>157</ele>
        <time>2022-02-08T14:04:19.000Z</time>
      </trkpt>
      <trkpt lat="44.1459" lon="0.50772">
        <ele>159</ele>
        <time>2022-02-08T14:03:58.000Z</time>
      </trkpt>
      <trkpt lat="44.14592" lon="0.50799">
        <ele>161</ele>
        <time>2022-02-08T14:03:41.000Z</time>
      </trkpt>
      <trkpt lat="44.14595" lon="0.50825">
        <ele>163</ele>
        <time>2022-02-08T14:03:20.000Z</time>
      </trkpt>
      <trkpt lat="44.14601" lon="0.50852">
        <ele>164</ele>
        <time>2022-02-08T14:03:05.000Z</time>
      </trkpt>
      <trkpt lat="44.14606" lon="0.50877">
        <ele>166</ele>
        <time>2022-02-08T14:02:48.000Z</time>
      </trkpt>
      <trkpt lat="44.14614" lon="0.50901">
        <ele>167</ele>
        <time>2022-02-08T14:02:33.000Z</time>
      </trkpt>
      <trkpt lat="44.14623" lon="0.50924">
        <ele>170</ele>
        <time>2022-02-08T14:02:17.000Z</time>
      </trkpt>
      <trkpt lat="44.14639" lon="0.50936">
        <ele>171</ele>
        <time>2022-02-08T14:02:01.000Z</time>
      </trkpt>
      <trkpt lat="44.14658" lon="0.50943">
        <ele>173</ele>
        <time>2022-02-08T14:01:44.000Z</time>
      </trkpt>
      <trkpt lat="44.14677" lon="0.5095">
        <ele>175</ele>
        <time>2022-02-08T14:01:27.000Z</time>
      </trkpt>
      <trkpt lat="44.14696" lon="0.50955">
        <ele>179</ele>
        <time>2022-02-08T14:01:11.000Z</time>
      </trkpt>
      <trkpt lat="44.14715" lon="0.5096">
        <ele>181</ele>
        <time>2022-02-08T14:00:54.000Z</time>
      </trkpt>
      <trkpt lat="44.14733" lon="0.50967">
        <ele>184</ele>
        <time>2022-02-08T14:00:37.000Z</time>
      </trkpt>
      <trkpt lat="44.1475" lon="0.50978">
        <ele>188</ele>
        <time>2022-02-08T14:00:15.000Z</time>
      </trkpt>
      <trkpt lat="44.14763" lon="0.50993">
        <ele>191</ele>
        <time>2022-02-08T13:59:35.000Z</time>
      </trkpt>
      <trkpt lat="44.14772" lon="0.51018">
        <ele>195</ele>
        <time>2022-02-08T13:59:15.000Z</time>
      </trkpt>
      <trkpt lat="44.1478" lon="0.51044">
        <ele>195</ele>
        <time>2022-02-08T13:58:57.000Z</time>
      </trkpt>
      <trkpt lat="44.14787" lon="0.5107">
        <ele>194</ele>
        <time>2022-02-08T13:58:37.000Z</time>
      </trkpt>
      <trkpt lat="44.14794" lon="0.51097">
        <ele>190</ele>
        <time>2022-02-08T13:58:15.000Z</time>
      </trkpt>
      <trkpt lat="44.14804" lon="0.5112">
        <ele>186</ele>
        <time>2022-02-08T13:57:49.000Z</time>
      </trkpt>
      <trkpt lat="44.14812" lon="0.51143">
        <ele>183</ele>
        <time>2022-02-08T13:57:20.000Z</time>
      </trkpt>
      <trkpt lat="44.14808" lon="0.51166">
        <ele>182</ele>
        <time>2022-02-08T13:56:38.000Z</time>
      </trkpt>
      <trkpt lat="44.14793" lon="0.51184">
        <ele>181</ele>
        <time>2022-02-08T13:54:43.000Z</time>
      </trkpt>
      <trkpt lat="44.14786" lon="0.51191">
        <ele>181</ele>
        <time>2022-02-08T13:54:35.000Z</time>
      </trkpt>
      <trkpt lat="44.14772" lon="0.51208">
        <ele>179</ele>
        <time>2022-02-08T13:54:17.000Z</time>
      </trkpt>
      <trkpt lat="44.1476" lon="0.51228">
        <ele>177</ele>
        <time>2022-02-08T13:53:56.000Z</time>
      </trkpt>
      <trkpt lat="44.14748" lon="0.51247">
        <ele>173</ele>
        <time>2022-02-08T13:53:38.000Z</time>
      </trkpt>
      <trkpt lat="44.14734" lon="0.51267">
        <ele>172</ele>
        <time>2022-02-08T13:53:19.000Z</time>
      </trkpt>
      <trkpt lat="44.14718" lon="0.51281">
        <ele>170</ele>
        <time>2022-02-08T13:52:59.000Z</time>
      </trkpt>
      <trkpt lat="44.14701" lon="0.51292">
        <ele>171</ele>
        <time>2022-02-08T13:52:42.000Z</time>
      </trkpt>
      <trkpt lat="44.14685" lon="0.51305">
        <ele>170</ele>
        <time>2022-02-08T13:52:27.000Z</time>
      </trkpt>
      <trkpt lat="44.1467" lon="0.51321">
        <ele>168</ele>
        <time>2022-02-08T13:52:13.000Z</time>
      </trkpt>
      <trkpt lat="44.14655" lon="0.51338">
        <ele>168</ele>
        <time>2022-02-08T13:51:43.000Z</time>
      </trkpt>
      <trkpt lat="44.14639" lon="0.51355">
        <ele>166</ele>
        <time>2022-02-08T13:51:27.000Z</time>
      </trkpt>
      <trkpt lat="44.14621" lon="0.51367">
        <ele>166</ele>
        <time>2022-02-08T13:51:12.000Z</time>
      </trkpt>
      <trkpt lat="44.14604" lon="0.5138">
        <ele>165</ele>
        <time>2022-02-08T13:50:56.000Z</time>
      </trkpt>
      <trkpt lat="44.14585" lon="0.51394">
        <ele>164</ele>
        <time>2022-02-08T13:50:37.000Z</time>
      </trkpt>
      <trkpt lat="44.14566" lon="0.51405">
        <ele>163</ele>
        <time>2022-02-08T13:50:11.000Z</time>
      </trkpt>
      <trkpt lat="44.14548" lon="0.51407">
        <ele>162</ele>
        <time>2022-02-08T13:48:18.000Z</time>
      </trkpt>
      <trkpt lat="44.14528" lon="0.5141">
        <ele>160</ele>
        <time>2022-02-08T13:47:49.000Z</time>
      </trkpt>
      <trkpt lat="44.1451" lon="0.51407">
        <ele>158</ele>
        <time>2022-02-08T13:47:32.000Z</time>
      </trkpt>
      <trkpt lat="44.14491" lon="0.51403">
        <ele>155</ele>
        <time>2022-02-08T13:47:15.000Z</time>
      </trkpt>
      <trkpt lat="44.14471" lon="0.51397">
        <ele>153</ele>
        <time>2022-02-08T13:46:56.000Z</time>
      </trkpt>
      <trkpt lat="44.14454" lon="0.51391">
        <ele>151</ele>
        <time>2022-02-08T13:46:36.000Z</time>
      </trkpt>
      <trkpt lat="44.14435" lon="0.51385">
        <ele>149</ele>
        <time>2022-02-08T13:46:15.000Z</time>
      </trkpt>
      <trkpt lat="44.14416" lon="0.51377">
        <ele>147</ele>
        <time>2022-02-08T13:45:55.000Z</time>
      </trkpt>
      <trkpt lat="44.14399" lon="0.51371">
        <ele>144</ele>
        <time>2022-02-08T13:45:36.000Z</time>
      </trkpt>
      <trkpt lat="44.1438" lon="0.51366">
        <ele>143</ele>
        <time>2022-02-08T13:45:20.000Z</time>
      </trkpt>
      <trkpt lat="44.14359" lon="0.5136">
        <ele>140</ele>
        <time>2022-02-08T13:44:56.000Z</time>
      </trkpt>
      <trkpt lat="44.14341" lon="0.51352">
        <ele>138</ele>
        <time>2022-02-08T13:44:40.000Z</time>
      </trkpt>
      <trkpt lat="44.14322" lon="0.51346">
        <ele>136</ele>
        <time>2022-02-08T13:44:23.000Z</time>
      </trkpt>
      <trkpt lat="44.14303" lon="0.51341">
        <ele>134</ele>
        <time>2022-02-08T13:43:09.000Z</time>
      </trkpt>
      <trkpt lat="44.14282" lon="0.51337">
        <ele>132</ele>
        <time>2022-02-08T13:42:46.000Z</time>
      </trkpt>
      <trkpt lat="44.14263" lon="0.51333">
        <ele>129</ele>
        <time>2022-02-08T13:42:28.000Z</time>
      </trkpt>
      <trkpt lat="44.14244" lon="0.51333">
        <ele>127</ele>
        <time>2022-02-08T13:42:11.000Z</time>
      </trkpt>
      <trkpt lat="44.14224" lon="0.5133">
        <ele>124</ele>
        <time>2022-02-08T13:41:51.000Z</time>
      </trkpt>
      <trkpt lat="44.14205" lon="0.51332">
        <ele>122</ele>
        <time>2022-02-08T13:41:33.000Z</time>
      </trkpt>
      <trkpt lat="44.14188" lon="0.51344">
        <ele>121</ele>
        <time>2022-02-08T13:41:16.000Z</time>
      </trkpt>
      <trkpt lat="44.14171" lon="0.51357">
        <ele>121</ele>
        <time>2022-02-08T13:40:58.000Z</time>
      </trkpt>
      <trkpt lat="44.14153" lon="0.51366">
        <ele>119</ele>
        <time>2022-02-08T13:40:41.000Z</time>
      </trkpt>
      <trkpt lat="44.14134" lon="0.51374">
        <ele>119</ele>
        <time>2022-02-08T13:40:24.000Z</time>
      </trkpt>
      <trkpt lat="44.14116" lon="0.51375">
        <ele>119</ele>
        <time>2022-02-08T13:40:07.000Z</time>
      </trkpt>
      <trkpt lat="44.14096" lon="0.51374">
        <ele>119</ele>
        <time>2022-02-08T13:39:52.000Z</time>
      </trkpt>
      <trkpt lat="44.14077" lon="0.5137">
        <ele>121</ele>
        <time>2022-02-08T13:39:33.000Z</time>
      </trkpt>
      <trkpt lat="44.1406" lon="0.51361">
        <ele>121</ele>
        <time>2022-02-08T13:39:13.000Z</time>
      </trkpt>
      <trkpt lat="44.14043" lon="0.51345">
        <ele>122</ele>
        <time>2022-02-08T13:38:47.000Z</time>
      </trkpt>
      <trkpt lat="44.14026" lon="0.51331">
        <ele>123</ele>
        <time>2022-02-08T13:38:29.000Z</time>
      </trkpt>
      <trkpt lat="44.1401" lon="0.51318">
        <ele>123</ele>
        <time>2022-02-08T13:38:12.000Z</time>
      </trkpt>
      <trkpt lat="44.13995" lon="0.51303">
        <ele>124</ele>
        <time>2022-02-08T13:37:57.000Z</time>
      </trkpt>
      <trkpt lat="44.1398" lon="0.51288">
        <ele>126</ele>
        <time>2022-02-08T13:37:41.000Z</time>
      </trkpt>
      <trkpt lat="44.13964" lon="0.51273">
        <ele>127</ele>
        <time>2022-02-08T13:37:27.000Z</time>
      </trkpt>
      <trkpt lat="44.13945" lon="0.51261">
        <ele>130</ele>
        <time>2022-02-08T13:37:11.000Z</time>
      </trkpt>
      <trkpt lat="44.13929" lon="0.51248">
        <ele>133</ele>
        <time>2022-02-08T13:36:57.000Z</time>
      </trkpt>
      <trkpt lat="44.13912" lon="0.51234">
        <ele>135</ele>
        <time>2022-02-08T13:36:41.000Z</time>
      </trkpt>
      <trkpt lat="44.13896" lon="0.5122">
        <ele>138</ele>
        <time>2022-02-08T13:36:24.000Z</time>
      </trkpt>
      <trkpt lat="44.13877" lon="0.51211">
        <ele>140</ele>
        <time>2022-02-08T13:36:07.000Z</time>
      </trkpt>
      <trkpt lat="44.1386" lon="0.51201">
        <ele>142</ele>
        <time>2022-02-08T13:35:50.000Z</time>
      </trkpt>
      <trkpt lat="44.13844" lon="0.51188">
        <ele>144</ele>
        <time>2022-02-08T13:35:32.000Z</time>
      </trkpt>
      <trkpt lat="44.13826" lon="0.51184">
        <ele>145</ele>
        <time>2022-02-08T13:33:49.000Z</time>
      </trkpt>
      <trkpt lat="44.13829" lon="0.51157">
        <ele>146</ele>
        <time>2022-02-08T13:33:33.000Z</time>
      </trkpt>
      <trkpt lat="44.1383" lon="0.5113">
        <ele>146</ele>
        <time>2022-02-08T13:33:17.000Z</time>
      </trkpt>
      <trkpt lat="44.13827" lon="0.51104">
        <ele>147</ele>
        <time>2022-02-08T13:33:02.000Z</time>
      </trkpt>
      <trkpt lat="44.13827" lon="0.51076">
        <ele>148</ele>
        <time>2022-02-08T13:32:45.000Z</time>
      </trkpt>
      <trkpt lat="44.13827" lon="0.51048">
        <ele>148</ele>
        <time>2022-02-08T13:32:28.000Z</time>
      </trkpt>
      <trkpt lat="44.13816" lon="0.51027">
        <ele>149</ele>
        <time>2022-02-08T13:31:58.000Z</time>
      </trkpt>
      <trkpt lat="44.13813" lon="0.51">
        <ele>150</ele>
        <time>2022-02-08T13:31:42.000Z</time>
      </trkpt>
      <trkpt lat="44.13806" lon="0.50976">
        <ele>151</ele>
        <time>2022-02-08T13:31:21.000Z</time>
      </trkpt>
      <trkpt lat="44.13799" lon="0.5095">
        <ele>152</ele>
        <time>2022-02-08T13:31:10.000Z</time>
      </trkpt>
      <trkpt lat="44.13792" lon="0.50925">
        <ele>154</ele>
        <time>2022-02-08T13:30:56.000Z</time>
      </trkpt>
      <trkpt lat="44.13788" lon="0.50899">
        <ele>157</ele>
        <time>2022-02-08T13:30:43.000Z</time>
      </trkpt>
      <trkpt lat="44.13792" lon="0.50873">
        <ele>158</ele>
        <time>2022-02-08T13:30:29.000Z</time>
      </trkpt>
      <trkpt lat="44.13797" lon="0.50847">
        <ele>160</ele>
        <time>2022-02-08T13:30:15.000Z</time>
      </trkpt>
      <trkpt lat="44.13801" lon="0.50821">
        <ele>162</ele>
        <time>2022-02-08T13:30:02.000Z</time>
      </trkpt>
      <trkpt lat="44.13802" lon="0.50793">
        <ele>163</ele>
        <time>2022-02-08T13:29:45.000Z</time>
      </trkpt>
      <trkpt lat="44.13803" lon="0.50766">
        <ele>164</ele>
        <time>2022-02-08T13:29:30.000Z</time>
      </trkpt>
      <trkpt lat="44.13805" lon="0.50739">
        <ele>166</ele>
        <time>2022-02-08T13:29:12.000Z</time>
      </trkpt>
      <trkpt lat="44.13815" lon="0.50717">
        <ele>167</ele>
        <time>2022-02-08T13:28:57.000Z</time>
      </trkpt>
      <trkpt lat="44.13829" lon="0.50699">
        <ele>168</ele>
        <time>2022-02-08T13:28:41.000Z</time>
      </trkpt>
      <trkpt lat="44.13844" lon="0.5068">
        <ele>169</ele>
        <time>2022-02-08T13:28:28.000Z</time>
      </trkpt>
      <trkpt lat="44.13855" lon="0.50658">
        <ele>171</ele>
        <time>2022-02-08T13:28:15.000Z</time>
      </trkpt>
      <trkpt lat="44.13868" lon="0.50639">
        <ele>172</ele>
        <time>2022-02-08T13:28:02.000Z</time>
      </trkpt>
      <trkpt lat="44.13881" lon="0.50619">
        <ele>174</ele>
        <time>2022-02-08T13:27:49.000Z</time>
      </trkpt>
      <trkpt lat="44.13894" lon="0.50599">
        <ele>174</ele>
        <time>2022-02-08T13:27:37.000Z</time>
      </trkpt>
      <trkpt lat="44.13908" lon="0.50582">
        <ele>175</ele>
        <time>2022-02-08T13:27:24.000Z</time>
      </trkpt>
      <trkpt lat="44.13921" lon="0.50561">
        <ele>176</ele>
        <time>2022-02-08T13:27:10.000Z</time>
      </trkpt>
      <trkpt lat="44.13935" lon="0.50542">
        <ele>177</ele>
        <time>2022-02-08T13:26:57.000Z</time>
      </trkpt>
      <trkpt lat="44.13949" lon="0.50522">
        <ele>178</ele>
        <time>2022-02-08T13:26:43.000Z</time>
      </trkpt>
      <trkpt lat="44.13962" lon="0.50501">
        <ele>179</ele>
        <time>2022-02-08T13:26:31.000Z</time>
      </trkpt>
      <trkpt lat="44.13971" lon="0.50476">
        <ele>180</ele>
        <time>2022-02-08T13:26:17.000Z</time>
      </trkpt>
      <trkpt lat="44.13981" lon="0.50452">
        <ele>181</ele>
        <time>2022-02-08T13:26:04.000Z</time>
      </trkpt>
      <trkpt lat="44.1399" lon="0.50429">
        <ele>182</ele>
        <time>2022-02-08T13:25:50.000Z</time>
      </trkpt>
      <trkpt lat="44.14001" lon="0.50407">
        <ele>183</ele>
        <time>2022-02-08T13:25:36.000Z</time>
      </trkpt>
      <trkpt lat="44.14009" lon="0.50382">
        <ele>185</ele>
        <time>2022-02-08T13:25:23.000Z</time>
      </trkpt>
      <trkpt lat="44.14018" lon="0.5036">
        <ele>186</ele>
        <time>2022-02-08T13:25:08.000Z</time>
      </trkpt>
      <trkpt lat="44.14029" lon="0.50335">
        <ele>187</ele>
        <time>2022-02-08T13:24:54.000Z</time>
      </trkpt>
      <trkpt lat="44.14041" lon="0.50315">
        <ele>187</ele>
        <time>2022-02-08T13:24:41.000Z</time>
      </trkpt>
      <trkpt lat="44.14052" lon="0.50296">
        <ele>188</ele>
        <time>2022-02-08T13:24:26.000Z</time>
      </trkpt>
      <trkpt lat="44.14064" lon="0.50276">
        <ele>188</ele>
        <time>2022-02-08T13:24:14.000Z</time>
      </trkpt>
      <trkpt lat="44.14076" lon="0.50255">
        <ele>189</ele>
        <time>2022-02-08T13:24:00.000Z</time>
      </trkpt>
      <trkpt lat="44.1409" lon="0.50235">
        <ele>189</ele>
        <time>2022-02-08T13:23:45.000Z</time>
      </trkpt>
      <trkpt lat="44.14103" lon="0.50216">
        <ele>190</ele>
        <time>2022-02-08T13:23:23.000Z</time>
      </trkpt>
      <trkpt lat="44.14116" lon="0.50197">
        <ele>191</ele>
        <time>2022-02-08T13:21:59.000Z</time>
      </trkpt>
      <trkpt lat="44.14128" lon="0.50176">
        <ele>192</ele>
        <time>2022-02-08T13:21:46.000Z</time>
      </trkpt>
      <trkpt lat="44.14142" lon="0.50157">
        <ele>192</ele>
        <time>2022-02-08T13:21:32.000Z</time>
      </trkpt>
      <trkpt lat="44.14145" lon="0.50131">
        <ele>193</ele>
        <time>2022-02-08T13:21:17.000Z</time>
      </trkpt>
      <trkpt lat="44.14144" lon="0.50105">
        <ele>193</ele>
        <time>2022-02-08T13:21:04.000Z</time>
      </trkpt>
      <trkpt lat="44.14142" lon="0.50077">
        <ele>193</ele>
        <time>2022-02-08T13:20:49.000Z</time>
      </trkpt>
      <trkpt lat="44.14141" lon="0.50051">
        <ele>193</ele>
        <time>2022-02-08T13:20:35.000Z</time>
      </trkpt>
      <trkpt lat="44.14138" lon="0.50027">
        <ele>192</ele>
        <time>2022-02-08T13:20:17.000Z</time>
      </trkpt>
      <trkpt lat="44.14136" lon="0.50002">
        <ele>192</ele>
        <time>2022-02-08T13:19:59.000Z</time>
      </trkpt>
      <trkpt lat="44.14136" lon="0.49976">
        <ele>192</ele>
        <time>2022-02-08T13:19:46.000Z</time>
      </trkpt>
      <trkpt lat="44.14136" lon="0.49947">
        <ele>192</ele>
        <time>2022-02-08T13:19:31.000Z</time>
      </trkpt>
      <trkpt lat="44.14136" lon="0.4992">
        <ele>194</ele>
        <time>2022-02-08T13:19:13.000Z</time>
      </trkpt>
      <trkpt lat="44.14149" lon="0.499">
        <ele>195</ele>
        <time>2022-02-08T13:18:48.000Z</time>
      </trkpt>
      <trkpt lat="44.14161" lon="0.49881">
        <ele>196</ele>
        <time>2022-02-08T13:18:28.000Z</time>
      </trkpt>
      <trkpt lat="44.14167" lon="0.49855">
        <ele>197</ele>
        <time>2022-02-08T13:17:31.000Z</time>
      </trkpt>
      <trkpt lat="44.14175" lon="0.49839">
        <ele>197</ele>
        <time>2022-02-08T13:17:13.000Z</time>
      </trkpt>
      <trkpt lat="44.14177" lon="0.49838">
        <ele>197</ele>
        <time>2022-02-08T13:16:47.000Z</time>
      </trkpt>
      <trkpt lat="44.14179" lon="0.49842">
        <ele>197</ele>
        <time>2022-02-08T13:16:13.000Z</time>
      </trkpt>
      <trkpt lat="44.14191" lon="0.49845">
        <ele>197</ele>
        <time>2024-12-03T20:30:02.000Z</time>
      </trkpt>
    </trkseg>
  </trk>
</gpx>